Grantville, Kansas
Current Conditions -  °F | °C
As of 6:53 AM on Friday 24 Oct 2014 (Local Time) from KTOP Reporting Station
Haze Haze  
Wind Chill: 58°   Ceiling: Unl
Heat Index: 58°   Visibility: 5mi
Dew Point: 57°   Wind: 3mph
Humidity: 97%   Direction: 170°S
Pressure: 30.03"   Gusts: NA
Location:  39.08°N, 95.56°W
Report Text: KTOP 241153Z AUTO 17003KT 5SM BR CLR 14/14 A3003 RMK AO2 SLP166 70001 T01440139 10156 20139 56008
Loading
Personal Weather Stations






























Interactive Weather Map
Tropical Storm Tracking
New forecast layout! Learn more

10-Day Weather Forecast

Advertisements
Track Severe Weather on mobile